sensor_id;sensor_type;location;lat;lon;timestamp;pressure;altitude;pressure_sealevel;temperature;humidity
77749;BME280;66938;52.084;5.228;2024-01-06T00:00:18;100500.0;;;6.98;100.0
77749;BME280;66938;52.084;5.228;2024-01-06T00:01:54;100500.0;;;6.93;100.0
77749;BME280;66938;52.084;5.228;2024-01-06T00:03:30;100499.0;;;6.95;100.0
77749;BME280;66938;52.084;5.228;2024-01-06T00:06:43;100507.0;;;6.95;100.0
77749;BME280;66938;52.084;5.228;2024-01-06T00:08:20;100509.0;;;6.96;100.0
77749;BME280;66938;52.084;5.228;2024-01-06T00:09:56;100515.0;;;6.94;100.0
77749;BME280;66938;52.084;5.228;2024-01-06T00:13:08;100516.0;;;6.84;100.0
77749;BME280;66938;52.084;5.228;2024-01-06T00:14:46;100520.0;;;6.75;100.0
77749;BME280;66938;52.084;5.228;2024-01-06T00:16:22;100516.0;;;6.69;100.0
77749;BME280;66938;52.084;5.228;2024-01-06T00:19:37;100527.0;;;6.6;100.0
77749;BME280;66938;52.084;5.228;2024-01-06T00:21:13;100526.0;;;6.51;100.0
77749;BME280;66938;52.084;5.228;2024-01-06T00:22:49;100532.0;;;6.51;100.0
77749;BME280;66938;52.084;5.228;2024-01-06T00:24:25;100533.0;;;6.49;100.0
77749;BME280;66938;52.084;5.228;2024-01-06T00:27:37;100532.0;;;6.47;100.0
77749;BME280;66938;52.084;5.228;2024-01-06T00:29:13;100533.0;;;6.44;100.0
77749;BME280;66938;52.084;5.228;2024-01-06T00:30:49;100536.0;;;6.44;100.0
77749;BME280;66938;52.084;5.228;2024-01-06T00:34:02;100538.0;;;6.42;100.0
77749;BME280;66938;52.084;5.228;2024-01-06T00:35:38;100545.0;;;6.46;100.0
77749;BME280;66938;52.084;5.228;2024-01-06T00:37:14;100546.0;;;6.44;100.0
77749;BME280;66938;52.084;5.228;2024-01-06T00:40:26;100543.0;;;6.35;100.0
77749;BME280;66938;52.084;5.228;2024-01-06T00:42:05;100545.0;;;6.35;100.0
77749;BME280;66938;52.084;5.228;2024-01-06T00:43:42;100550.0;;;6.34;100.0
77749;BME280;66938;52.084;5.228;2024-01-06T00:45:18;100553.0;;;6.3;100.0
77749;BME280;66938;52.084;5.228;2024-01-06T00:48:30;100551.0;;;6.28;100.0
77749;BME280;66938;52.084;5.228;2024-01-06T00:50:07;100549.0;;;6.29;100.0
77749;BME280;66938;52.084;5.228;2024-01-06T00:51:44;100553.0;;;6.3;100.0
77749;BME280;66938;52.084;5.228;2024-01-06T00:54:57;100550.0;;;6.32;100.0
77749;BME280;66938;52.084;5.228;2024-01-06T00:56:33;100559.0;;;6.32;100.0
77749;BME280;66938;52.084;5.228;2024-01-06T00:58:09;100558.0;;;6.12;100.0
77749;BME280;66938;52.084;5.228;2024-01-06T01:01:21;100561.0;;;6.21;100.0
77749;BME280;66938;52.084;5.228;2024-01-06T01:02:57;100563.0;;;6.26;100.0
77749;BME280;66938;52.084;5.228;2024-01-06T01:04:33;100570.0;;;6.26;100.0
77749;BME280;66938;52.084;5.228;2024-01-06T01:07:46;100574.0;;;6.25;100.0
77749;BME280;66938;52.084;5.228;2024-01-06T01:09:22;100578.0;;;6.3;100.0
77749;BME280;66938;52.084;5.228;2024-01-06T01:10:58;100573.0;;;6.28;100.0
77749;BME280;66938;52.084;5.228;2024-01-06T01:12:34;100580.0;;;6.28;100.0
77749;BME280;66938;52.084;5.228;2024-01-06T01:15:46;100578.0;;;6.27;100.0
77749;BME280;66938;52.084;5.228;2024-01-06T01:17:22;100584.0;;;6.24;100.0
77749;BME280;66938;52.084;5.228;2024-01-06T01:18:58;100586.0;;;6.18;100.0
77749;BME280;66938;52.084;5.228;2024-01-06T01:22:10;100588.0;;;6.18;100.0
77749;BME280;66938;52.084;5.228;2024-01-06T01:23:47;100593.0;;;6.17;100.0
77749;BME280;66938;52.084;5.228;2024-01-06T01:25:23;100595.0;;;6.12;100.0
77749;BME280;66938;52.084;5.228;2024-01-06T01:28:35;100597.0;;;6.07;100.0
77749;BME280;66938;52.084;5.228;2024-01-06T01:30:11;100596.0;;;6.11;100.0
77749;BME280;66938;52.084;5.228;2024-01-06T01:31:47;100602.0;;;6.07;100.0
77749;BME280;66938;52.084;5.228;2024-01-06T01:35:00;100603.0;;;6.06;100.0
77749;BME280;66938;52.084;5.228;2024-01-06T01:36:36;100606.0;;;6.01;100.0
77749;BME280;66938;52.084;5.228;2024-01-06T01:38:13;100613.0;;;6.04;100.0
77749;BME280;66938;52.084;5.228;2024-01-06T01:39:49;100618.0;;;6.05;100.0
77749;BME280;66938;52.084;5.228;2024-01-06T01:43:01;100624.0;;;6.09;100.0
77749;BME280;66938;52.084;5.228;2024-01-06T01:44:37;100628.0;;;6.07;100.0
77749;BME280;66938;52.084;5.228;2024-01-06T01:46:13;100636.0;;;6.1;100.0
77749;BME280;66938;52.084;5.228;2024-01-06T01:49:26;100643.0;;;6.1;100.0
77749;BME280;66938;52.084;5.228;2024-01-06T01:51:03;100644.0;;;6.08;100.0
77749;BME280;66938;52.084;5.228;2024-01-06T01:52:40;100642.0;;;6.12;100.0
77749;BME280;66938;52.084;5.228;2024-01-06T01:55:54;100641.0;;;6.04;100.0
77749;BME280;66938;52.084;5.228;2024-01-06T01:57:30;100650.0;;;6.05;100.0
77749;BME280;66938;52.084;5.228;2024-01-06T01:59:12;100651.0;;;6.04;100.0
77749;BME280;66938;52.084;5.228;2024-01-06T02:00:48;100647.0;;;6.04;100.0
77749;BME280;66938;52.084;5.228;2024-01-06T02:04:01;100645.0;;;5.98;100.0
77749;BME280;66938;52.084;5.228;2024-01-06T02:05:37;100655.0;;;5.96;100.0
77749;BME280;66938;52.084;5.228;2024-01-06T02:07:13;100661.0;;;5.82;100.0
77749;BME280;66938;52.084;5.228;2024-01-06T02:10:25;100661.0;;;5.82;100.0
77749;BME280;66938;52.084;5.228;2024-01-06T02:12:05;100661.0;;;5.77;100.0
77749;BME280;66938;52.084;5.228;2024-01-06T02:13:41;100666.0;;;5.72;100.0
77749;BME280;66938;52.084;5.228;2024-01-06T02:15:18;100665.0;;;5.74;100.0
77749;BME280;66938;52.084;5.228;2024-01-06T02:18:31;100674.0;;;5.74;100.0
77749;BME280;66938;52.084;5.228;2024-01-06T02:20:09;100670.0;;;5.73;100.0
77749;BME280;66938;52.084;5.228;2024-01-06T02:21:48;100675.0;;;5.74;100.0
77749;BME280;66938;52.084;5.228;2024-01-06T02:25:00;100682.0;;;5.79;100.0
77749;BME280;66938;52.084;5.228;2024-01-06T02:26:36;100674.0;;;5.8;100.0
77749;BME280;66938;52.084;5.228;2024-01-06T02:28:12;100682.0;;;5.82;100.0
77749;BME280;66938;52.084;5.228;2024-01-06T02:31:24;100683.0;;;5.75;100.0
77749;BME280;66938;52.084;5.228;2024-01-06T02:33:00;100680.0;;;5.8;100.0
77749;BME280;66938;52.084;5.228;2024-01-06T02:34:37;100678.0;;;5.77;100.0
77749;BME280;66938;52.084;5.228;2024-01-06T02:36:13;100680.0;;;5.76;100.0
77749;BME280;66938;52.084;5.228;2024-01-06T02:39:25;100680.0;;;5.76;100.0
77749;BME280;66938;52.084;5.228;2024-01-06T02:41:01;100685.0;;;5.75;100.0
77749;BME280;66938;52.084;5.228;2024-01-06T02:42:37;100686.0;;;5.76;100.0
77749;BME280;66938;52.084;5.228;2024-01-06T02:45:49;100695.0;;;5.75;100.0
77749;BME280;66938;52.084;5.228;2024-01-06T02:47:25;100701.0;;;5.78;100.0
77749;BME280;66938;52.084;5.228;2024-01-06T02:49:01;100701.0;;;5.76;100.0
77749;BME280;66938;52.084;5.228;2024-01-06T02:52:14;100707.0;;;5.79;100.0
77749;BME280;66938;52.084;5.228;2024-01-06T02:53:50;100711.0;;;5.79;100.0
77749;BME280;66938;52.084;5.228;2024-01-06T02:55:26;100713.0;;;5.73;100.0
77749;BME280;66938;52.084;5.228;2024-01-06T02:58:38;100717.0;;;5.75;100.0
77749;BME280;66938;52.084;5.228;2024-01-06T03:00:15;100721.0;;;5.75;100.0
77749;BME280;66938;52.084;5.228;2024-01-06T03:01:51;100717.0;;;5.71;100.0
77749;BME280;66938;52.084;5.228;2024-01-06T03:03:27;100722.0;;;5.69;100.0
77749;BME280;66938;52.084;5.228;2024-01-06T03:06:40;100721.0;;;5.59;100.0
77749;BME280;66938;52.084;5.228;2024-01-06T03:08:20;100721.0;;;5.57;100.0
77749;BME280;66938;52.084;5.228;2024-01-06T03:09:56;100719.0;;;5.55;100.0
77749;BME280;66938;52.084;5.228;2024-01-06T03:13:08;100721.0;;;5.57;100.0
77749;BME280;66938;52.084;5.228;2024-01-06T03:14:44;100719.0;;;5.63;100.0
77749;BME280;66938;52.084;5.228;2024-01-06T03:16:20;100724.0;;;5.62;100.0
77749;BME280;66938;52.084;5.228;2024-01-06T03:19:32;100725.0;;;5.63;100.0
77749;BME280;66938;52.084;5.228;2024-01-06T03:21:16;100731.0;;;5.59;100.0
77749;BME280;66938;52.084;5.228;2024-01-06T03:22:52;100732.0;;;5.6;100.0
77749;BME280;66938;52.084;5.228;2024-01-06T03:24:28;100736.0;;;5.55;100.0
77749;BME280;66938;52.084;5.228;2024-01-06T03:27:42;100740.0;;;5.57;100.0
77749;BME280;66938;52.084;5.228;2024-01-06T03:29:18;100748.0;;;5.59;100.0
77749;BME280;66938;52.084;5.228;2024-01-06T03:30:54;100747.0;;;5.61;100.0
77749;BME280;66938;52.084;5.228;2024-01-06T03:34:05;100750.0;;;5.61;100.0
77749;BME280;66938;52.084;5.228;2024-01-06T03:35:41;100751.0;;;5.63;100.0
77749;BME280;66938;52.084;5.228;2024-01-06T03:37:17;100758.0;;;5.64;100.0
77749;BME280;66938;52.084;5.228;2024-01-06T03:40:29;100766.0;;;5.63;100.0
77749;BME280;66938;52.084;5.228;2024-01-06T03:42:06;100763.0;;;5.65;100.0
77749;BME280;66938;52.084;5.228;2024-01-06T03:43:42;100768.0;;;5.68;100.0
77749;BME280;66938;52.084;5.228;2024-01-06T03:45:18;100767.0;;;5.7;100.0
77749;BME280;66938;52.084;5.228;2024-01-06T03:48:30;100771.0;;;5.7;100.0
77749;BME280;66938;52.084;5.228;2024-01-06T03:50:06;100771.0;;;5.68;100.0
77749;BME280;66938;52.084;5.228;2024-01-06T03:51:43;100776.0;;;5.68;100.0
77749;BME280;66938;52.084;5.228;2024-01-06T03:54:58;100784.0;;;5.67;100.0
77749;BME280;66938;52.084;5.228;2024-01-06T03:56:34;100784.0;;;5.65;100.0
77749;BME280;66938;52.084;5.228;2024-01-06T03:58:11;100793.0;;;5.58;100.0
77749;BME280;66938;52.084;5.228;2024-01-06T04:01:23;100785.0;;;5.64;100.0
77749;BME280;66938;52.084;5.228;2024-01-06T04:02:59;100791.0;;;5.63;100.0
77749;BME280;66938;52.084;5.228;2024-01-06T04:04:35;100793.0;;;5.61;100.0
77749;BME280;66938;52.084;5.228;2024-01-06T04:06:11;100795.0;;;5.59;100.0
77749;BME280;66938;52.084;5.228;2024-01-06T04:09:23;100791.0;;;5.56;100.0
77749;BME280;66938;52.084;5.228;2024-01-06T04:10:59;100796.0;;;5.6;100.0
77749;BME280;66938;52.084;5.228;2024-01-06T04:12:35;100796.0;;;5.6;100.0
77749;BME280;66938;52.084;5.228;2024-01-06T04:15:47;100805.0;;;5.51;100.0
77749;BME280;66938;52.084;5.228;2024-01-06T04:17:24;100807.0;;;5.54;100.0
77749;BME280;66938;52.084;5.228;2024-01-06T04:19:00;100802.0;;;5.57;100.0
77749;BME280;66938;52.084;5.228;2024-01-06T04:22:12;100805.0;;;5.59;100.0
77749;BME280;66938;52.084;5.228;2024-01-06T04:23:48;100807.0;;;5.59;100.0
77749;BME280;66938;52.084;5.228;2024-01-06T04:25:24;100805.0;;;5.58;100.0
77749;BME280;66938;52.084;5.228;2024-01-06T04:28:36;100801.0;;;5.54;100.0
77749;BME280;66938;52.084;5.228;2024-01-06T04:30:13;100807.0;;;5.49;100.0
77749;BME280;66938;52.084;5.228;2024-01-06T04:31:48;100810.0;;;5.5;100.0
77749;BME280;66938;52.084;5.228;2024-01-06T04:33:25;100808.0;;;5.48;100.0
77749;BME280;66938;52.084;5.228;2024-01-06T04:36:37;100811.0;;;5.5;100.0
77749;BME280;66938;52.084;5.228;2024-01-06T04:38:13;100812.0;;;5.48;100.0
77749;BME280;66938;52.084;5.228;2024-01-06T04:39:49;100820.0;;;5.5;100.0
77749;BME280;66938;52.084;5.228;2024-01-06T04:43:01;100820.0;;;5.48;100.0
77749;BME280;66938;52.084;5.228;2024-01-06T04:44:37;100821.0;;;5.33;100.0
77749;BME280;66938;52.084;5.228;2024-01-06T04:46:13;100821.0;;;5.36;100.0
77749;BME280;66938;52.084;5.228;2024-01-06T04:49:26;100825.0;;;5.34;100.0
77749;BME280;66938;52.084;5.228;2024-01-06T04:51:02;100824.0;;;5.31;100.0
77749;BME280;66938;52.084;5.228;2024-01-06T04:52:38;100834.0;;;5.33;100.0
77749;BME280;66938;52.084;5.228;2024-01-06T04:54:14;100832.0;;;5.27;100.0
77749;BME280;66938;52.084;5.228;2024-01-06T04:57:26;100834.0;;;5.23;100.0
77749;BME280;66938;52.084;5.228;2024-01-06T04:59:02;100834.0;;;5.24;100.0
77749;BME280;66938;52.084;5.228;2024-01-06T05:00:38;100841.0;;;5.23;100.0
77749;BME280;66938;52.084;5.228;2024-01-06T05:03:50;100839.0;;;5.21;100.0
77749;BME280;66938;52.084;5.228;2024-01-06T05:05:26;100845.0;;;5.16;100.0
77749;BME280;66938;52.084;5.228;2024-01-06T05:07:03;100848.0;;;5.14;100.0
77749;BME280;66938;52.084;5.228;2024-01-06T05:10:16;100850.0;;;5.13;100.0
77749;BME280;66938;52.084;5.228;2024-01-06T05:13:28;100856.0;;;5.14;100.0
77749;BME280;66938;52.084;5.228;2024-01-06T05:16:41;100861.0;;;5.13;100.0
77749;BME280;66938;52.084;5.228;2024-01-06T05:18:17;100869.0;;;5.13;100.0
77749;BME280;66938;52.084;5.228;2024-01-06T05:19:54;100871.0;;;5.15;100.0
77749;BME280;66938;52.084;5.228;2024-01-06T05:21:31;100866.0;;;5.18;100.0
77749;BME280;66938;52.084;5.228;2024-01-06T05:24:46;100873.0;;;5.21;100.0
77749;BME280;66938;52.084;5.228;2024-01-06T05:26:22;100870.0;;;5.21;100.0
77749;BME280;66938;52.084;5.228;2024-01-06T05:27:58;100876.0;;;5.19;100.0
77749;BME280;66938;52.084;5.228;2024-01-06T05:31:10;100876.0;;;5.18;100.0
77749;BME280;66938;52.084;5.228;2024-01-06T05:32:46;100877.0;;;5.15;100.0
77749;BME280;66938;52.084;5.228;2024-01-06T05:34:22;100878.0;;;5.16;100.0
77749;BME280;66938;52.084;5.228;2024-01-06T05:37:34;100876.0;;;5.14;100.0
77749;BME280;66938;52.084;5.228;2024-01-06T05:39:10;100880.0;;;5.15;100.0
77749;BME280;66938;52.084;5.228;2024-01-06T05:40:46;100880.0;;;5.12;100.0
77749;BME280;66938;52.084;5.228;2024-01-06T05:42:23;100886.0;;;5.13;100.0
77749;BME280;66938;52.084;5.228;2024-01-06T05:45:35;100888.0;;;5.14;100.0
77749;BME280;66938;52.084;5.228;2024-01-06T05:47:11;100887.0;;;5.16;100.0
77749;BME280;66938;52.084;5.228;2024-01-06T05:48:47;100891.0;;;5.16;100.0
77749;BME280;66938;52.084;5.228;2024-01-06T05:51:59;100894.0;;;5.15;100.0
77749;BME280;66938;52.084;5.228;2024-01-06T05:53:35;100894.0;;;5.12;100.0
77749;BME280;66938;52.084;5.228;2024-01-06T05:55:12;100896.0;;;5.17;100.0
77749;BME280;66938;52.084;5.228;2024-01-06T05:58:27;100905.0;;;5.13;100.0
77749;BME280;66938;52.084;5.228;2024-01-06T06:00:04;100905.0;;;5.16;100.0
77749;BME280;66938;52.084;5.228;2024-01-06T06:01:43;100907.0;;;5.16;100.0
77749;BME280;66938;52.084;5.228;2024-01-06T06:03:19;100908.0;;;5.14;100.0
77749;BME280;66938;52.084;5.228;2024-01-06T06:06:31;100914.0;;;5.21;100.0
77749;BME280;66938;52.084;5.228;2024-01-06T06:08:07;100916.0;;;5.13;100.0
77749;BME280;66938;52.084;5.228;2024-01-06T06:09:43;100917.0;;;5.14;100.0
77749;BME280;66938;52.084;5.228;2024-01-06T06:12:55;100917.0;;;5.12;100.0
77749;BME280;66938;52.084;5.228;2024-01-06T06:14:32;100917.0;;;5.11;100.0
77749;BME280;66938;52.084;5.228;2024-01-06T06:16:09;100915.0;;;5.05;100.0
77749;BME280;66938;52.084;5.228;2024-01-06T06:19:25;100927.0;;;5.08;100.0
77749;BME280;66938;52.084;5.228;2024-01-06T06:21:01;100933.0;;;5.07;100.0
77749;BME280;66938;52.084;5.228;2024-01-06T06:22:37;100931.0;;;5.07;100.0
77749;BME280;66938;52.084;5.228;2024-01-06T06:24:13;100937.0;;;5.05;100.0
77749;BME280;66938;52.084;5.228;2024-01-06T06:27:26;100940.0;;;5.07;100.0
77749;BME280;66938;52.084;5.228;2024-01-06T06:29:03;100947.0;;;5.01;100.0
77749;BME280;66938;52.084;5.228;2024-01-06T06:30:38;100948.0;;;4.99;100.0
77749;BME280;66938;52.084;5.228;2024-01-06T06:33:51;100953.0;;;4.97;100.0
77749;BME280;66938;52.084;5.228;2024-01-06T06:35:27;100953.0;;;5.0;100.0
77749;BME280;66938;52.084;5.228;2024-01-06T06:37:03;100956.0;;;5.03;100.0
77749;BME280;66938;52.084;5.228;2024-01-06T06:40:15;100966.0;;;4.99;100.0
77749;BME280;66938;52.084;5.228;2024-01-06T06:41:51;100972.0;;;4.99;100.0
77749;BME280;66938;52.084;5.228;2024-01-06T06:43:27;100975.0;;;4.97;100.0
77749;BME280;66938;52.084;5.228;2024-01-06T06:46:41;100974.0;;;4.96;100.0
77749;BME280;66938;52.084;5.228;2024-01-06T06:48:18;100982.0;;;4.99;100.0
77749;BME280;66938;52.084;5.228;2024-01-06T06:49:54;100980.0;;;4.95;100.0
77749;BME280;66938;52.084;5.228;2024-01-06T06:51:30;100983.0;;;4.95;100.0
77749;BME280;66938;52.084;5.228;2024-01-06T06:54:43;100988.0;;;4.93;100.0
77749;BME280;66938;52.084;5.228;2024-01-06T06:56:19;100998.0;;;4.92;100.0
77749;BME280;66938;52.084;5.228;2024-01-06T06:57:55;100998.0;;;4.88;100.0
77749;BME280;66938;52.084;5.228;2024-01-06T07:01:08;100997.0;;;4.92;100.0
77749;BME280;66938;52.084;5.228;2024-01-06T07:02:44;101001.0;;;4.95;100.0
77749;BME280;66938;52.084;5.228;2024-01-06T07:04:20;101003.0;;;4.93;100.0
77749;BME280;66938;52.084;5.228;2024-01-06T07:07:33;101010.0;;;4.97;100.0
77749;BME280;66938;52.084;5.228;2024-01-06T07:09:09;101016.0;;;4.92;100.0
77749;BME280;66938;52.084;5.228;2024-01-06T07:10:45;101021.0;;;4.96;100.0
77749;BME280;66938;52.084;5.228;2024-01-06T07:12:21;101027.0;;;4.92;100.0
77749;BME280;66938;52.084;5.228;2024-01-06T07:15:33;101028.0;;;4.95;100.0
77749;BME280;66938;52.084;5.228;2024-01-06T07:17:09;101031.0;;;4.99;100.0
77749;BME280;66938;52.084;5.228;2024-01-06T07:18:45;101038.0;;;4.87;100.0
77749;BME280;66938;52.084;5.228;2024-01-06T07:21:57;101038.0;;;4.89;100.0
77749;BME280;66938;52.084;5.228;2024-01-06T07:23:34;101037.0;;;4.82;100.0
77749;BME280;66938;52.084;5.228;2024-01-06T07:25:11;101041.0;;;4.87;100.0
77749;BME280;66938;52.084;5.228;2024-01-06T07:28:23;101041.0;;;4.87;100.0
77749;BME280;66938;52.084;5.228;2024-01-06T07:29:59;101044.0;;;4.87;100.0
77749;BME280;66938;52.084;5.228;2024-01-06T07:31:35;101047.0;;;4.83;100.0
77749;BME280;66938;52.084;5.228;2024-01-06T07:33:11;101050.0;;;4.84;100.0
77749;BME280;66938;52.084;5.228;2024-01-06T07:36:24;101051.0;;;4.84;100.0
77749;BME280;66938;52.084;5.228;2024-01-06T07:38:00;101052.0;;;4.82;100.0
77749;BME280;66938;52.084;5.228;2024-01-06T07:39:36;101055.0;;;4.78;100.0
77749;BME280;66938;52.084;5.228;2024-01-06T07:42:49;101059.0;;;4.8;100.0
77749;BME280;66938;52.084;5.228;2024-01-06T07:44:25;101059.0;;;4.83;100.0
77749;BME280;66938;52.084;5.228;2024-01-06T07:46:01;101060.0;;;4.84;100.0
77749;BME280;66938;52.084;5.228;2024-01-06T07:49:13;101065.0;;;4.87;100.0
77749;BME280;66938;52.084;5.228;2024-01-06T07:50:49;101066.0;;;4.87;100.0
77749;BME280;66938;52.084;5.228;2024-01-06T07:52:25;101078.0;;;4.82;100.0
77749;BME280;66938;52.084;5.228;2024-01-06T07:55:38;101085.0;;;4.87;100.0
77749;BME280;66938;52.084;5.228;2024-01-06T07:57:14;101097.0;;;4.88;100.0
77749;BME280;66938;52.084;5.228;2024-01-06T07:58:50;101099.0;;;4.88;100.0
77749;BME280;66938;52.084;5.228;2024-01-06T08:00:26;101098.0;;;4.86;100.0
77749;BME280;66938;52.084;5.228;2024-01-06T08:03:38;101102.0;;;4.89;100.0
77749;BME280;66938;52.084;5.228;2024-01-06T08:05:14;101107.0;;;4.92;100.0
77749;BME280;66938;52.084;5.228;2024-01-06T08:06:51;101105.0;;;4.89;100.0
77749;BME280;66938;52.084;5.228;2024-01-06T08:10:03;101108.0;;;4.91;100.0
77749;BME280;66938;52.084;5.228;2024-01-06T08:11:40;101108.0;;;4.91;100.0
77749;BME280;66938;52.084;5.228;2024-01-06T08:13:16;101114.0;;;4.87;100.0
77749;BME280;66938;52.084;5.228;2024-01-06T08:16:28;101118.0;;;4.82;100.0
77749;BME280;66938;52.084;5.228;2024-01-06T08:18:04;101118.0;;;4.84;100.0
77749;BME280;66938;52.084;5.228;2024-01-06T08:19:40;101123.0;;;4.87;100.0
77749;BME280;66938;52.084;5.228;2024-01-06T08:22:55;101128.0;;;4.91;100.0
77749;BME280;66938;52.084;5.228;2024-01-06T08:24:32;101130.0;;;4.91;100.0
77749;BME280;66938;52.084;5.228;2024-01-06T08:26:08;101131.0;;;4.95;100.0
77749;BME280;66938;52.084;5.228;2024-01-06T08:27:44;101136.0;;;4.97;100.0
77749;BME280;66938;52.084;5.228;2024-01-06T08:30:55;101131.0;;;4.95;100.0
77749;BME280;66938;52.084;5.228;2024-01-06T08:32:31;101130.0;;;4.99;100.0
77749;BME280;66938;52.084;5.228;2024-01-06T08:34:07;101132.0;;;5.01;100.0
77749;BME280;66938;52.084;5.228;2024-01-06T08:37:19;101140.0;;;5.01;100.0
77749;BME280;66938;52.084;5.228;2024-01-06T08:38:55;101139.0;;;4.96;100.0
77749;BME280;66938;52.084;5.228;2024-01-06T08:40:32;101144.0;;;5.03;100.0
77749;BME280;66938;52.084;5.228;2024-01-06T08:43:44;101148.0;;;5.01;100.0
77749;BME280;66938;52.084;5.228;2024-01-06T08:45:20;101150.0;;;5.05;100.0
77749;BME280;66938;52.084;5.228;2024-01-06T08:46:56;101149.0;;;5.03;100.0
77749;BME280;66938;52.084;5.228;2024-01-06T08:48:32;101155.0;;;4.99;100.0
77749;BME280;66938;52.084;5.228;2024-01-06T08:51:44;101169.0;;;4.97;100.0
77749;BME280;66938;52.084;5.228;2024-01-06T08:53:20;101166.0;;;5.01;100.0
77749;BME280;66938;52.084;5.228;2024-01-06T08:54:56;101164.0;;;4.99;100.0
77749;BME280;66938;52.084;5.228;2024-01-06T08:58:09;101170.0;;;5.04;100.0
77749;BME280;66938;52.084;5.228;2024-01-06T08:59:46;101180.0;;;5.03;100.0
77749;BME280;66938;52.084;5.228;2024-01-06T09:01:22;101186.0;;;4.97;100.0
77749;BME280;66938;52.084;5.228;2024-01-06T09:04:34;101183.0;;;4.97;100.0
77749;BME280;66938;52.084;5.228;2024-01-06T09:06:10;101194.0;;;5.0;100.0
77749;BME280;66938;52.084;5.228;2024-01-06T09:07:46;101198.0;;;5.03;100.0
77749;BME280;66938;52.084;5.228;2024-01-06T09:10:58;101203.0;;;5.07;100.0
77749;BME280;66938;52.084;5.228;2024-01-06T09:12:35;101198.0;;;5.13;100.0
77749;BME280;66938;52.084;5.228;2024-01-06T09:14:11;101203.0;;;5.14;100.0
77749;BME280;66938;52.084;5.228;2024-01-06T09:15:47;101210.0;;;5.2;100.0
77749;BME280;66938;52.084;5.228;2024-01-06T09:18:59;101210.0;;;5.18;100.0
77749;BME280;66938;52.084;5.228;2024-01-06T09:20:35;101209.0;;;5.23;100.0
77749;BME280;66938;52.084;5.228;2024-01-06T09:22:11;101214.0;;;5.25;100.0
77749;BME280;66938;52.084;5.228;2024-01-06T09:25:23;101217.0;;;5.21;100.0
77749;BME280;66938;52.084;5.228;2024-01-06T09:26:59;101216.0;;;5.2;100.0
77749;BME280;66938;52.084;5.228;2024-01-06T09:28:36;101219.0;;;5.22;100.0
77749;BME280;66938;52.084;5.228;2024-01-06T09:31:52;101223.0;;;5.28;100.0
77749;BME280;66938;52.084;5.228;2024-01-06T09:33:29;101227.0;;;5.3;100.0
77749;BME280;66938;52.084;5.228;2024-01-06T09:35:05;101216.0;;;5.31;100.0
77749;BME280;66938;52.084;5.228;2024-01-06T09:36:42;101231.0;;;5.35;100.0
77749;BME280;66938;52.084;5.228;2024-01-06T09:39:54;101230.0;;;5.42;100.0
77749;BME280;66938;52.084;5.228;2024-01-06T09:41:31;101238.0;;;5.45;100.0
77749;BME280;66938;52.084;5.228;2024-01-06T09:43:06;101235.0;;;5.38;100.0
77749;BME280;66938;52.084;5.228;2024-01-06T09:46:23;101241.0;;;5.41;100.0
77749;BME280;66938;52.084;5.228;2024-01-06T09:48:04;101246.0;;;5.44;100.0
77749;BME280;66938;52.084;5.228;2024-01-06T09:49:49;101251.0;;;5.4;100.0
77749;BME280;66938;52.084;5.228;2024-01-06T09:51:26;101255.0;;;5.4;100.0
77749;BME280;66938;52.084;5.228;2024-01-06T09:54:42;101253.0;;;5.48;100.0
77749;BME280;66938;52.084;5.228;2024-01-06T09:56:24;101255.0;;;5.46;100.0
77749;BME280;66938;52.084;5.228;2024-01-06T09:58:00;101257.0;;;5.48;100.0
77749;BME280;66938;52.084;5.228;2024-01-06T09:59:38;101259.0;;;5.5;100.0
77749;BME280;66938;52.084;5.228;2024-01-06T10:02:54;101265.0;;;5.48;100.0
77749;BME280;66938;52.084;5.228;2024-01-06T10:04:32;101271.0;;;5.43;100.0
77749;BME280;66938;52.084;5.228;2024-01-06T10:06:08;101271.0;;;5.45;100.0
77749;BME280;66938;52.084;5.228;2024-01-06T10:09:26;101276.0;;;5.43;100.0
77749;BME280;66938;52.084;5.228;2024-01-06T10:11:03;101280.0;;;5.41;100.0
77749;BME280;66938;52.084;5.228;2024-01-06T10:12:39;101281.0;;;5.36;100.0
77749;BME280;66938;52.084;5.228;2024-01-06T10:14:16;101286.0;;;5.37;100.0
77749;BME280;66938;52.084;5.228;2024-01-06T10:17:29;101290.0;;;5.38;100.0
77749;BME280;66938;52.084;5.228;2024-01-06T10:19:05;101286.0;;;5.37;100.0
77749;BME280;66938;52.084;5.228;2024-01-06T10:20:43;101295.0;;;5.44;100.0
77749;BME280;66938;52.084;5.228;2024-01-06T10:23:56;101294.0;;;5.49;100.0
77749;BME280;66938;52.084;5.228;2024-01-06T10:25:32;101300.0;;;5.51;100.0
77749;BME280;66938;52.084;5.228;2024-01-06T10:27:11;101297.0;;;5.48;100.0
77749;BME280;66938;52.084;5.228;2024-01-06T10:30:24;101302.0;;;5.51;100.0
77749;BME280;66938;52.084;5.228;2024-01-06T10:32:00;101302.0;;;5.52;100.0
77749;BME280;66938;52.084;5.228;2024-01-06T10:33:36;101303.0;;;5.54;100.0
77749;BME280;66938;52.084;5.228;2024-01-06T10:35:14;101302.0;;;5.54;100.0
77749;BME280;66938;52.084;5.228;2024-01-06T10:38:27;101309.0;;;5.48;100.0
77749;BME280;66938;52.084;5.228;2024-01-06T10:40:07;101310.0;;;5.48;100.0
77749;BME280;66938;52.084;5.228;2024-01-06T10:41:46;101314.0;;;5.48;100.0
77749;BME280;66938;52.084;5.228;2024-01-06T10:45:02;101323.0;;;5.47;100.0
77749;BME280;66938;52.084;5.228;2024-01-06T10:46:40;101320.0;;;5.52;100.0
77749;BME280;66938;52.084;5.228;2024-01-06T10:48:19;101321.0;;;5.54;100.0
77749;BME280;66938;52.084;5.228;2024-01-06T10:49:58;101317.0;;;5.57;100.0
77749;BME280;66938;52.084;5.228;2024-01-06T10:53:13;101325.0;;;5.51;100.0
77749;BME280;66938;52.084;5.228;2024-01-06T10:54:51;101325.0;;;5.52;100.0
77749;BME280;66938;52.084;5.228;2024-01-06T10:56:30;101325.0;;;5.5;100.0
77749;BME280;66938;52.084;5.228;2024-01-06T10:59:49;101328.0;;;5.47;100.0
77749;BME280;66938;52.084;5.228;2024-01-06T11:01:25;101331.0;;;5.53;100.0
77749;BME280;66938;52.084;5.228;2024-01-06T11:03:01;101324.0;;;5.58;100.0
77749;BME280;66938;52.084;5.228;2024-01-06T11:04:38;101327.0;;;5.63;100.0
77749;BME280;66938;52.084;5.228;2024-01-06T11:07:54;101330.0;;;5.64;100.0
77749;BME280;66938;52.084;5.228;2024-01-06T11:09:33;101335.0;;;5.63;100.0
77749;BME280;66938;52.084;5.228;2024-01-06T11:11:12;101337.0;;;5.6;100.0
77749;BME280;66938;52.084;5.228;2024-01-06T11:14:44;101342.0;;;5.58;100.0
77749;BME280;66938;52.084;5.228;2024-01-06T11:16:33;101341.0;;;5.58;100.0